Accueil
METAR-TAF:

METAR-TAF

Aéroports :

Milford Municipal Airport (Ben and Judy Briscoe Field)

Milford, Utah, États-Unis

latitude: 38-25-21N, longitude: 113-00-35W, altitude: 1536 m

Observation

Le bulletin a été fait il y a 25 minutes, à 23:52 UTC
Vent 9 kt de nord/nord-est
Température 12°C
Humidité 35%
Pression 1026 hPa
Visibilité: 16.1 km
Ciel clair

METAR: KMLF 112352Z AUTO 02009KT 10SM CLR 12/M03 A3031 RMK AO2 WSHFT 2334 SLP252 T01171033 10139 20111 53005

Heure: 17:17 (00:17 UTC)


TAF: absent

Observations et prévisions météorologiques de plus de 4000 aéroports (messages METAR et TAF).

Les stations disponibles sont représentées par des disques jaunes et rouges sur la carte.

Passer la souris dessus pour voir le nom de la station.

Cliquer dessus pour voir les observations et prévisions météorologiques.

Pour changer de carte: cliquez sur les boutons verts avec une croix noire pour zoomer, sur le bouton vert avec un tiret pour effectuer un zoom arrière, ou sur les flèches vertes pour les cartes adjacentes.


METAR-TAF: